This is the latest recevied weather packets stored in our database for station/object N0KWA. If no packets are shown the sender has not sent any weather packets the latest 10 day(s).
| Time | Temp. | Humidity | Pressure | Rain* | Wind** | Luminosity | Snow |
|---|---|---|---|---|---|---|---|
| 1777399718 | 30° C | 70% | 1019.4 hPa | 0 mm | - | 547 W/m² | - |
| 1777399410 | 29.44° C | 72% | 1019.6 hPa | 0 mm | - | 566 W/m² | - |
| 1777399108 | 29.44° C | 74% | 1019.6 hPa | 0 mm | - | 291 W/m² | - |
| 1777398805 | 29.44° C | 72% | 1019.6 hPa | 0 mm | - | 85 W/m² | - |
| 1777398502 | 29.44° C | 75% | 1019.7 hPa | 0 mm | - | 635 W/m² | - |
| 1777398198 | 29.44° C | 72% | 1019.6 hPa | 0 mm | - | 393 W/m² | - |
| 1777397895 | 29.44° C | 75% | 1019.6 hPa | 0 mm | - | 568 W/m² | - |
| 1777397591 | 29.44° C | 72% | 1019.9 hPa | 0 mm | - | 108 W/m² | - |
| 1777397287 | 29.44° C | 73% | 1019.8 hPa | 0 mm | - | 439 W/m² | - |
| 1777396984 | 29.44° C | 74% | 1019.8 hPa | 0 mm | - | 561 W/m² | - |
| 1777396681 | 28.89° C | 74% | 1020.1 hPa | 0 mm | - | 56 W/m² | - |
| 1777396377 | 28.89° C | 73% | 1019.9 hPa | 0 mm | - | 55 W/m² | - |
| 1777396074 | 28.89° C | 75% | 1020.2 hPa | 0 mm | - | 51 W/m² | - |
| 1777395770 | 28.89° C | 75% | 1020.1 hPa | 0 mm | - | 62 W/m² | - |
| 1777395465 | 28.89° C | 75% | 1020.2 hPa | 0 mm | - | 49 W/m² | - |
| 1777395163 | 28.89° C | 75% | 1020.1 hPa | 0 mm | - | 46 W/m² | - |
| 1777394859 | 28.33° C | 74% | 1020.5 hPa | 0 mm | - | 46 W/m² | - |
| 1777394555 | 28.33° C | 74% | 1020.5 hPa | 0 mm | - | 47 W/m² | - |
| 1777394252 | 28.33° C | 73% | 1020.6 hPa | 0 mm | - | 47 W/m² | - |
| 1777393948 | 27.78° C | 77% | 1020.6 hPa | 0 mm | - | 52 W/m² | - |
| 1777393647 | 27.78° C | 76% | 1020.7 hPa | 0 mm | - | 46 W/m² | - |
| 1777393343 | 27.78° C | 77% | 1020.7 hPa | 0 mm | - | 45 W/m² | - |
| 1777393040 | 27.22° C | 80% | 1020.7 hPa | 0 mm | - | 45 W/m² | - |
| 1777392736 | 26.67° C | 80% | 1020.9 hPa | 0 mm | - | 65 W/m² | - |
| 1777392432 | 26.67° C | 81% | 1020.6 hPa | 0 mm | - | 42 W/m² | - |
* Rain latest hour (hover to see other rain measurements)
** Current wind speed in m/s (hover to see current wind gust speed)